Aérodrome :
LOGIN :

S'inscrire | Disclaimer

   EN    FR    IT 

 










Légende :    VFR   VFR Marginal   IFR   IFR Intensif   IFR Très Intensif
Visi : 
Plafond : 
>= 8 km
>= 3000ft
5 à 8 km
1000 à 3000 ft
1500m à 5 km
500 à 1000 ft
800 à 1500m
200 à 500 ft
< 800m
< 200 ft
Symboles :   Orages  Brouillard  Fortes neiges  Fortes précipitations  Vent > 20 kt
SIGMETs :   Divers  Orages  Givrage  Turbulence  Onde Orograph.  Cendres Volcan.






- Altitude de l'aérodrome : 36 ft
- Code IATA : LTQ


LFAT - Le Touquet

DERNIER METAR :
  • 151730Z AUTO 09007KT 040V110 5000 -RA BR OVC013 04/03 Q0998 TEMPO RA

METARs EXPIRÉS :
  • 151700Z AUTO 07007KT 6000 OVC015 05/03 Q0998 TEMPO 4000 RA BKN012 OVC020
  • 151630Z AUTO 07007KT 6000 -RA FEW016 BKN041 OVC049 04/03 Q0998 TEMPO 4000 RA BKN012 OVC020
  • 151600Z AUTO 06006KT 020V090 5000 -RA BR BKN014 BKN024 OVC031 04/03 Q0998 TEMPO RA
  • 151530Z AUTO 08005KT 6000 -RA OVC021 04/03 Q0998 TEMPO 4000 RA BKN012 OVC020
  • 151500Z AUTO 07008KT 5000 BR BKN014/// OVC020/// ///TCU 05/03 Q0998 TEMPO RA BKN012 OVC020

TAF TAF LFAT
Valide du 15 à 15h jusqu'au 16 à 00h UTC


151400Z 1515/1524 04010KT 9999 BKN020 OVC030
TEMPO 1515/1524 4000 RA BKN012 OVC020
ATIS : +33 3 21 06 62 84



MET'MAP, la Météo Aéronautique d'un coup d'oeil ! - Copyright ORBIFLY Décembre 2007 - Disclaimer

ORBIFLY MET'MAP TEAM :

Programmation & Développement : Alexandra Zaïnal
Conception & Développement : Baudouin d'Aumeries
Co-Programmation & Développement : Marc-Olivier Méhu
Soutien technique & logistique : Manuel Goepfert

Contact : metmap@orbifly.com




SOURCES & CREDITS :

   NOAA